Time;durP1;ratioP1;P1;durP2;ratioP2;P2;SDS_P1;SDS_P2;PMS_P1;PMS_P2;Temp;Humidity;BMP_temperature;BMP_pressure;BME280_temperature;BME280_humidity;BME280_pressure;Samples;Min_cycle;Max_cycle;Signal;HPM_P1;HPM_P2
2021/10/21 00:02:14;;;;;;;10.70;2.00;;;;;;;12.31;67.14;98271.09;6142028;29;20207;-72
2021/10/21 00:05:20;;;;;;;4.97;1.60;;;;;;;12.34;68.18;98270.53;6142819;29;20195;-72
2021/10/21 00:08:24;;;;;;;4.50;1.80;;;;;;;12.32;67.82;98261.81;6142612;29;20195;-72
2021/10/21 00:11:29;;;;;;;5.55;1.70;;;;;;;12.30;68.00;98261.25;6141465;29;20635;-73
2021/10/21 00:14:33;;;;;;;7.13;1.48;;;;;;;12.19;68.06;98262.50;6141505;29;20481;-72
2021/10/21 00:17:38;;;;;;;4.88;1.58;;;;;;;12.32;67.85;98250.88;6141662;29;20267;-72
2021/10/21 00:20:43;;;;;;;3.05;1.60;;;;;;;12.42;68.45;98250.75;6142676;29;20251;-72
2021/10/21 00:23:48;;;;;;;9.85;1.88;;;;;;;12.47;68.08;98247.16;6141361;29;20442;-74
2021/10/21 00:26:52;;;;;;;8.05;1.92;;;;;;;12.47;68.01;98247.16;6141175;29;20404;-73
2021/10/21 00:29:56;;;;;;;4.80;1.50;;;;;;;12.43;68.80;98230.50;6125149;29;20323;-73
2021/10/21 00:33:00;;;;;;;7.25;1.80;;;;;;;12.22;69.14;98248.22;6142060;29;20194;-73
2021/10/21 00:36:06;;;;;;;9.73;1.73;;;;;;;12.40;69.12;98242.00;6141945;29;20259;-72
2021/10/21 00:39:10;;;;;;;6.32;1.52;;;;;;;12.32;69.67;98234.47;6142302;29;20195;-73
2021/10/21 00:42:15;;;;;;;7.55;1.90;;;;;;;12.36;69.91;98245.63;6141418;29;20192;-73
2021/10/21 00:45:19;;;;;;;6.15;1.67;;;;;;;12.37;69.51;98234.41;6141796;29;20255;-73
2021/10/21 00:48:24;;;;;;;11.20;1.55;;;;;;;12.30;69.82;98231.19;6141917;29;20204;-72
2021/10/21 00:51:30;;;;;;;5.90;1.65;;;;;;;12.34;70.02;98232.25;6141714;29;20222;-73
2021/10/21 00:54:36;;;;;;;5.82;1.67;;;;;;;12.24;71.03;98237.84;6142186;29;20219;-73
2021/10/21 00:57:40;;;;;;;4.68;1.65;;;;;;;12.23;70.22;98228.00;6140488;29;20196;-73
2021/10/21 01:00:44;;;;;;;5.50;1.80;;;;;;;12.22;70.43;98222.84;6142067;29;20196;-73
2021/10/21 01:03:50;;;;;;;7.10;1.70;;;;;;;12.24;70.27;98231.56;6140957;29;20188;-73
2021/10/21 01:06:56;;;;;;;7.57;1.63;;;;;;;12.20;70.33;98214.91;6141069;29;20188;-73
2021/10/21 01:10:00;;;;;;;6.72;2.10;;;;;;;12.27;70.50;98220.03;6141955;29;20260;-73
2021/10/21 01:13:05;;;;;;;5.40;1.63;;;;;;;11.99;69.81;98213.53;6140582;29;20633;-73
2021/10/21 01:16:12;;;;;;;4.22;1.60;;;;;;;12.09;70.72;98226.25;6141713;29;20299;-73
2021/10/21 01:19:18;;;;;;;6.05;1.50;;;;;;;12.10;69.87;98234.16;6140537;29;20358;-73
2021/10/21 01:22:25;;;;;;;5.60;1.77;;;;;;;12.20;69.92;98225.84;6140486;29;20509;-74
2021/10/21 01:25:29;;;;;;;10.77;1.73;;;;;;;12.18;70.46;98222.59;6141240;29;20223;-73
2021/10/21 01:28:33;;;;;;;10.90;2.30;;;;;;;12.04;70.85;98220.84;6140875;29;20188;-73
2021/10/21 01:31:38;;;;;;;6.53;1.83;;;;;;;12.05;70.60;98223.28;6141625;29;20216;-72
2021/10/21 01:34:42;;;;;;;6.03;1.67;;;;;;;11.91;72.23;98205.94;6140711;29;20220;-73
2021/10/21 01:37:48;;;;;;;4.88;1.75;;;;;;;11.81;72.19;98211.53;6141640;29;20196;-73
2021/10/21 01:40:52;;;;;;;4.70;1.42;;;;;;;11.71;72.04;98211.63;6141369;29;20193;-73
2021/10/21 01:43:56;;;;;;;7.15;1.88;;;;;;;11.79;71.94;98208.22;6140688;29;20352;-73
2021/10/21 01:47:00;;;;;;;12.77;2.00;;;;;;;11.68;73.20;98209.44;6141557;29;20219;-73
2021/10/21 01:50:06;;;;;;;6.90;1.55;;;;;;;11.71;72.36;98206.16;6140921;29;20240;-73
2021/10/21 01:53:13;;;;;;;6.60;1.83;;;;;;;11.66;72.85;98211.59;6140214;29;20401;-74
2021/10/21 01:56:18;;;;;;;14.00;2.13;;;;;;;11.78;71.84;98207.44;6141173;29;20189;-71
2021/10/21 01:59:22;;;;;;;8.32;1.98;;;;;;;11.58;72.56;98212.25;6141373;29;20195;-72
2021/10/21 02:02:26;;;;;;;5.05;1.52;;;;;;;11.67;72.31;98215.97;6141374;29;20240;-72
2021/10/21 02:05:30;;;;;;;5.65;1.83;;;;;;;11.68;73.04;98218.47;6140703;29;20263;-72
2021/10/21 02:08:36;;;;;;;6.63;2.15;;;;;;;11.66;72.01;98217.06;6142333;29;20300;-72
2021/10/21 02:11:40;;;;;;;11.55;2.10;;;;;;;11.64;73.41;98211.91;6145094;29;20220;-72
2021/10/21 02:14:44;;;;;;;7.78;1.50;;;;;;;11.57;73.98;98213.34;6145215;29;20188;-72
2021/10/21 02:17:48;;;;;;;6.85;1.60;;;;;;;11.41;75.02;98211.81;6144121;29;20189;-71
2021/10/21 02:20:52;;;;;;;4.03;1.70;;;;;;;11.55;72.43;98218.28;6127846;29;20204;-72
2021/10/21 02:23:58;;;;;;;6.03;1.67;;;;;;;11.54;72.79;98211.19;6145237;29;20192;-72
2021/10/21 02:27:02;;;;;;;8.52;1.55;;;;;;;11.39;75.19;98203.94;6143955;29;20439;-72
2021/10/21 02:30:09;;;;;;;6.90;1.77;;;;;;;11.41;73.92;98203.63;6145194;29;20188;-72
2021/10/21 02:33:14;;;;;;;6.03;1.33;;;;;;;11.13;75.70;98195.13;6144879;29;20250;-72
2021/10/21 02:36:19;;;;;;;1.80;1.63;;;;;;;11.22;74.60;98198.88;6143644;29;20530;-72
2021/10/21 02:39:24;;;;;;;9.95;1.80;;;;;;;11.34;74.80;98179.41;6144165;29;20397;-71
2021/10/21 02:42:28;;;;;;;13.30;1.70;;;;;;;11.36;75.46;98187.31;6144897;29;20196;-72
2021/10/21 02:45:33;;;;;;;11.02;2.05;;;;;;;11.39;75.05;98193.03;6143757;29;20260;-72
2021/10/21 02:48:37;;;;;;;3.65;1.88;;;;;;;11.23;76.58;98192.31;6143964;29;20251;-72
2021/10/21 02:51:41;;;;;;;9.30;1.67;;;;;;;11.17;77.60;98182.53;6144594;29;20216;-73
2021/10/21 02:54:47;;;;;;;7.90;1.90;;;;;;;11.21;76.92;98186.34;6144601;29;20195;-72
2021/10/21 02:57:51;;;;;;;7.95;1.90;;;;;;;11.13;77.71;98195.13;6144491;29;20188;-72
2021/10/21 03:00:55;;;;;;;10.02;1.88;;;;;;;11.09;78.44;98202.25;6144171;29;20201;-72
2021/10/21 03:03:59;;;;;;;7.65;1.58;;;;;;;11.00;79.18;98209.41;6143056;29;20415;-72
2021/10/21 03:07:04;;;;;;;4.50;2.00;;;;;;;10.92;79.78;98210.00;6143906;29;20247;-72
2021/10/21 03:10:11;;;;;;;9.85;1.83;;;;;;;10.92;80.05;98218.19;6143969;29;20196;-72
2021/10/21 03:13:15;;;;;;;5.80;1.88;;;;;;;11.03;80.14;98216.22;6144122;29;20216;-72
2021/10/21 03:16:19;;;;;;;14.82;2.10;;;;;;;10.89;80.90;98210.56;6144091;29;20227;-73
2021/10/21 03:19:24;;;;;;;10.05;2.00;;;;;;;10.99;80.40;98209.69;6143519;29;20188;-73
2021/10/21 03:22:28;;;;;;;5.22;1.77;;;;;;;10.79;81.42;98216.06;6143743;29;20198;-73
2021/10/21 03:25:33;;;;;;;6.60;1.90;;;;;;;10.81;81.42;98213.88;6143967;29;20309;-74
2021/10/21 03:28:38;;;;;;;5.18;2.22;;;;;;;10.82;81.31;98215.53;6142729;29;20354;-73
2021/10/21 03:31:43;;;;;;;13.63;1.80;;;;;;;10.78;82.03;98221.81;6143850;29;20195;-73
2021/10/21 03:34:47;;;;;;;3.95;1.50;;;;;;;10.66;82.66;98233.06;6142592;29;20396;-74
2021/10/21 03:37:51;;;;;;;8.30;1.83;;;;;;;10.60;83.20;98223.28;6142385;29;20431;-72
2021/10/21 03:40:57;;;;;;;7.93;2.03;;;;;;;10.64;83.21;98229.78;6142319;29;20444;-72
2021/10/21 03:44:01;;;;;;;4.70;1.63;;;;;;;10.61;83.30;98219.44;6142257;29;20192;-73
2021/10/21 03:47:05;;;;;;;8.38;2.05;;;;;;;10.73;82.82;98216.41;6142625;29;20188;-72
2021/10/21 03:50:11;;;;;;;7.10;1.70;;;;;;;10.71;82.78;98208.47;6142494;29;20239;-73
2021/10/21 03:53:17;;;;;;;3.60;1.70;;;;;;;10.68;82.97;98209.84;6142912;29;20223;-72
2021/10/21 03:56:22;;;;;;;10.00;2.13;;;;;;;10.70;83.30;98212.31;6142772;29;20188;-71
2021/10/21 03:59:27;;;;;;;5.15;1.85;;;;;;;10.62;83.39;98204.72;6142793;29;20204;-72
2021/10/21 04:02:31;;;;;;;8.80;2.00;;;;;;;10.54;83.92;98213.50;6143146;29;20254;-73
2021/10/21 04:05:35;;;;;;;3.08;1.60;;;;;;;10.70;82.94;98206.88;6141640;29;20192;-73
2021/10/21 04:08:40;;;;;;;5.25;1.85;;;;;;;10.53;84.22;98200.94;6141651;29;20203;-73
2021/10/21 04:11:45;;;;;;;5.47;1.77;;;;;;;10.52;83.87;98202.06;6142860;29;20236;-73
2021/10/21 04:14:49;;;;;;;8.30;2.28;;;;;;;10.58;83.73;98203.63;6141461;29;20454;-73
2021/10/21 04:17:54;;;;;;;7.78;2.60;;;;;;;10.72;82.82;98199.22;6141931;29;20188;-72
2021/10/21 04:20:58;;;;;;;10.23;2.20;;;;;;;10.53;83.78;98190.03;6141456;29;20351;-72
2021/10/21 04:24:03;;;;;;;9.88;2.20;;;;;;;10.60;84.26;98190.56;6142695;29;20223;-73
2021/10/21 04:27:08;;;;;;;6.07;1.98;;;;;;;10.56;83.77;98193.03;6142317;29;20189;-73
2021/10/21 04:30:13;;;;;;;8.73;2.28;;;;;;;10.50;84.07;98196.06;6142139;29;20263;-73
2021/10/21 04:33:17;;;;;;;10.00;1.88;;;;;;;10.31;85.67;98197.78;6140358;29;20578;-73
2021/10/21 04:36:22;;;;;;;5.20;2.00;;;;;;;10.32;85.48;98194.78;6142424;29;20251;-72
2021/10/21 04:39:26;;;;;;;8.52;2.55;;;;;;;10.43;85.24;98190.91;6142124;29;20236;-73
2021/10/21 04:42:31;;;;;;;6.82;1.98;;;;;;;10.43;84.63;98195.53;6141138;29;20479;-73
2021/10/21 04:45:35;;;;;;;8.43;1.60;;;;;;;10.40;85.33;98201.56;6142324;29;20196;-73
2021/10/21 04:48:41;;;;;;;5.72;2.10;;;;;;;10.36;86.15;98212.22;6141491;29;20232;-73
2021/10/21 04:51:45;;;;;;;6.65;1.70;;;;;;;10.27;86.22;98202.97;6142224;29;20195;-73
2021/10/21 04:54:50;;;;;;;13.30;2.13;;;;;;;10.35;85.71;98201.59;6141877;29;20324;-73
2021/10/21 04:57:55;;;;;;;6.07;1.88;;;;;;;10.27;86.52;98196.72;6140762;29;20255;-73
2021/10/21 05:00:59;;;;;;;5.13;1.75;;;;;;;10.18;86.35;98198.38;6140756;29;20535;-73
2021/10/21 05:04:04;;;;;;;7.55;2.03;;;;;;;10.13;87.15;98190.22;6140731;29;20590;-73
2021/10/21 05:07:09;;;;;;;8.57;1.90;;;;;;;10.33;85.56;98184.69;6142077;29;20192;-74
2021/10/21 05:10:13;;;;;;;7.95;2.08;;;;;;;10.28;86.07;98198.34;6141599;29;20271;-73
2021/10/21 05:13:19;;;;;;;4.90;1.90;;;;;;;10.16;86.83;98195.13;6141184;29;20211;-73
2021/10/21 05:16:23;;;;;;;5.55;1.83;;;;;;;10.21;86.29;98181.47;6140514;29;20471;-72
2021/10/21 05:19:27;;;;;;;8.43;2.03;;;;;;;10.29;85.95;98189.06;6140352;29;20487;-72
2021/10/21 05:22:31;;;;;;;4.15;1.65;;;;;;;10.17;86.33;98191.31;6140749;29;20188;-72
2021/10/21 05:25:36;;;;;;;3.53;1.80;;;;;;;10.19;86.80;98189.13;6141745;29;20267;-72
2021/10/21 05:28:41;;;;;;;5.30;2.10;;;;;;;10.31;85.68;98181.44;6141604;29;20243;-73
2021/10/21 05:31:45;;;;;;;11.55;2.05;;;;;;;10.23;86.46;98184.72;6141622;29;20251;-73
2021/10/21 05:34:50;;;;;;;7.25;2.15;;;;;;;10.14;87.14;98172.78;6141379;29;20219;-73
2021/10/21 05:37:54;;;;;;;7.20;1.88;;;;;;;10.06;87.04;98180.41;6141542;29;20263;-72
2021/10/21 05:40:58;;;;;;;8.73;2.28;;;;;;;10.23;86.53;98187.44;6140831;29;20196;-73
2021/10/21 05:44:04;;;;;;;4.90;1.83;;;;;;;10.24;86.59;98180.91;6143220;29;20193;-73
2021/10/21 05:47:10;;;;;;;6.40;1.83;;;;;;;10.30;86.89;98174.34;6146004;29;20192;-73
2021/10/21 05:50:14;;;;;;;9.27;2.00;;;;;;;10.37;86.43;98164.78;6145522;29;20282;-73
2021/10/21 05:53:19;;;;;;;10.07;2.10;;;;;;;10.26;87.06;98162.38;6145792;29;20195;-73
2021/10/21 05:56:23;;;;;;;9.32;2.10;;;;;;;10.32;86.77;98167.53;6145306;29;20189;-73
2021/10/21 05:59:29;;;;;;;12.55;2.10;;;;;;;10.37;86.08;98169.44;6144918;29;20192;-73
2021/10/21 06:02:33;;;;;;;5.53;2.15;;;;;;;10.33;87.04;98174.59;6144318;29;20475;-73
2021/10/21 06:05:38;;;;;;;6.32;2.17;;;;;;;10.27;87.05;98164.81;6144910;29;20196;-73
2021/10/21 06:08:44;;;;;;;15.15;2.22;;;;;;;10.31;86.81;98170.53;6145295;29;20197;-72
2021/10/21 06:11:50;;;;;;;9.68;1.95;;;;;;;10.19;87.67;98162.69;6143954;29;20515;-72
2021/10/21 06:15:02;;;;;;;9.80;2.10;;;;;;;10.15;88.22;98172.50;6144788;29;20216;-72
2021/10/21 06:18:11;;;;;;;11.23;2.13;;;;;;;10.22;87.94;98161.31;6144915;29;20236;-72
2021/10/21 06:21:21;;;;;;;10.25;2.10;;;;;;;10.24;88.20;98153.69;6145045;29;20219;-72
2021/10/21 06:24:26;;;;;;;4.38;1.77;;;;;;;10.34;87.47;98148.19;6144208;29;20193;-73
2021/10/21 06:27:30;;;;;;;3.45;1.73;;;;;;;10.36;87.20;98148.72;6144613;29;20251;-73
2021/10/21 06:30:36;;;;;;;10.52;2.40;;;;;;;10.35;87.73;98149.81;6144529;29;20245;-73
2021/10/21 06:33:41;;;;;;;5.22;2.67;;;;;;;10.30;88.53;98147.09;6144816;29;20188;-73
2021/10/21 06:36:45;;;;;;;5.75;1.98;;;;;;;10.37;88.12;98150.34;6143497;29;20480;-73
2021/10/21 06:39:54;;;;;;;8.55;2.17;;;;;;;10.36;87.68;98162.34;6144096;29;20485;-73
2021/10/21 06:42:58;;;;;;;9.55;2.22;;;;;;;10.35;88.49;98161.50;6143286;29;20526;-73
2021/10/21 06:46:06;;;;;;;4.85;2.20;;;;;;;10.40;88.16;98168.88;6144508;29;20268;-72
2021/10/21 06:49:10;;;;;;;12.73;2.50;;;;;;;10.35;89.31;98166.16;6143440;29;20412;-72
2021/10/21 06:52:15;;;;;;;15.15;1.90;;;;;;;10.51;88.99;98167.69;6144419;29;20236;-72
2021/10/21 06:55:19;;;;;;;11.18;2.20;;;;;;;10.66;88.19;98173.06;6142286;29;20547;-73
2021/10/21 06:58:23;;;;;;;9.65;2.08;;;;;;;10.71;88.30;98158.63;6144283;29;20247;-72
2021/10/21 07:01:29;;;;;;;6.05;2.33;;;;;;;10.69;88.62;98158.88;6142905;29;20547;-72
2021/10/21 07:04:33;;;;;;;5.63;1.95;;;;;;;10.78;88.33;98138.13;6143782;29;20196;-72
2021/10/21 07:07:58;;;;;;;5.78;1.67;;;;;;;10.78;87.69;98138.13;6142818;29;20188;-73
2021/10/21 07:11:03;;;;;;;4.97;1.92;;;;;;;10.88;87.37;98132.59;6143729;29;20188;-72
2021/10/21 07:14:08;;;;;;;8.30;1.95;;;;;;;10.90;87.43;98135.84;6143666;29;20197;-72
2021/10/21 07:17:14;;;;;;;2.25;1.70;;;;;;;10.98;87.75;98137.97;6143679;29;20228;-72
2021/10/21 07:20:18;;;;;;;6.72;1.92;;;;;;;11.01;87.76;98136.56;6143832;29;20192;-72
2021/10/21 07:23:22;;;;;;;3.97;1.95;;;;;;;11.09;87.26;98117.66;6143758;29;20188;-73
2021/10/21 07:26:26;;;;;;;6.90;1.70;;;;;;;11.18;87.01;98121.41;6143413;29;20275;-73
2021/10/21 07:29:30;;;;;;;4.70;1.75;;;;;;;11.23;86.78;98105.00;6143816;29;20219;-73
2021/10/21 07:32:36;;;;;;;7.63;2.22;;;;;;;11.26;87.60;98101.69;6142902;29;20188;-73
2021/10/21 07:35:41;;;;;;;7.53;1.98;;;;;;;11.33;86.86;98091.25;6142175;29;20295;-72
2021/10/21 07:38:45;;;;;;;10.05;2.10;;;;;;;11.28;87.29;98094.03;6143240;29;20255;-72
2021/10/21 07:41:49;;;;;;;6.25;2.42;;;;;;;11.25;87.73;98080.97;6142622;29;20266;-73
2021/10/21 07:44:53;;;;;;;4.18;2.00;;;;;;;11.18;88.00;98088.69;6143425;29;20199;-74
2021/10/21 07:47:59;;;;;;;9.98;2.40;;;;;;;11.24;87.81;98073.06;6142769;29;20188;-73
2021/10/21 07:51:04;;;;;;;9.43;2.25;;;;;;;11.20;88.26;98070.09;6142719;29;20405;-73
2021/10/21 07:54:11;;;;;;;4.90;1.88;;;;;;;11.20;88.25;98072.81;6142932;29;20215;-73
2021/10/21 07:57:18;;;;;;;5.78;2.20;;;;;;;11.16;88.81;98069.06;6141975;29;20224;-73
2021/10/21 08:00:23;;;;;;;4.97;2.10;;;;;;;11.17;88.82;98070.66;6143131;29;20188;-73
2021/10/21 08:03:29;;;;;;;5.72;2.03;;;;;;;11.18;88.74;98066.03;6142685;29;20196;-73
2021/10/21 08:06:34;;;;;;;10.85;2.70;;;;;;;11.25;88.53;98059.13;6141899;29;20224;-73
2021/10/21 08:09:38;;;;;;;7.50;2.50;;;;;;;11.20;89.13;98058.34;6142728;29;20227;-73
2021/10/21 08:12:43;;;;;;;10.48;2.65;;;;;;;11.28;89.00;98053.09;6142821;29;20193;-73
2021/10/21 08:15:47;;;;;;;8.70;2.55;;;;;;;11.38;88.63;98043.97;6142494;29;20250;-73
2021/10/21 08:18:53;;;;;;;2.00;1.70;;;;;;;11.55;87.85;98054.47;6141530;29;20375;-73
2021/10/21 08:22:02;;;;;;;6.95;1.85;;;;;;;11.57;87.76;98053.06;6141404;29;20507;-73
2021/10/21 08:25:12;;;;;;;5.68;1.85;;;;;;;11.65;87.12;98060.63;6142645;29;20199;-73
2021/10/21 08:28:16;;;;;;;3.15;1.85;;;;;;;11.56;87.70;98047.88;6142576;29;20219;-72
2021/10/21 08:31:21;;;;;;;2.80;1.60;;;;;;;11.65;87.31;98054.34;6142389;29;20279;-72
2021/10/21 08:34:26;;;;;;;5.05;1.70;;;;;;;11.69;87.27;98055.41;6142069;29;20189;-73
2021/10/21 08:37:31;;;;;;;2.20;2.00;;;;;;;11.69;87.51;98044.47;6141903;29;20275;-72
2021/10/21 08:40:37;;;;;;;8.85;2.00;;;;;;;11.74;87.02;98036.22;6140912;29;20387;-73
2021/10/21 08:43:41;;;;;;;8.77;2.20;;;;;;;11.78;87.21;98031.81;6141031;29;20546;-73
2021/10/21 08:46:51;;;;;;;4.13;1.73;;;;;;;11.86;86.71;98029.25;6140961;29;20483;-74
2021/10/21 08:49:58;;;;;;;7.18;1.90;;;;;;;11.99;85.82;98027.75;6141516;29;20243;-73
2021/10/21 08:53:03;;;;;;;1.58;1.48;;;;;;;12.03;85.28;98012.38;6140841;29;20192;-73
2021/10/21 08:56:09;;;;;;;4.05;1.95;;;;;;;12.06;85.63;98033.66;6140693;29;20394;-71
2021/10/21 08:59:13;;;;;;;7.45;1.73;;;;;;;12.12;85.49;98021.50;6141012;29;20188;-72
2021/10/21 09:02:20;;;;;;;5.72;1.80;;;;;;;12.11;85.87;98019.91;6141591;29;20191;-72
2021/10/21 09:05:31;;;;;;;5.97;1.50;;;;;;;12.16;86.62;98025.31;6140695;29;20479;-72
2021/10/21 09:08:44;;;;;;;4.72;1.45;;;;;;;12.16;86.84;98019.84;6140622;29;20526;-72
2021/10/21 09:12:03;;;;;;;2.42;1.60;;;;;;;12.25;87.29;98004.38;6140538;29;20390;-72
2021/10/21 09:15:12;;;;;;;3.88;1.83;;;;;;;12.39;86.64;97999.81;6140276;29;20189;-72
2021/10/21 09:18:18;;;;;;;6.57;1.70;;;;;;;12.48;86.33;97991.72;6142607;29;20220;-72
2021/10/21 09:21:31;;;;;;;10.38;1.40;;;;;;;12.57;85.44;97989.97;6146279;29;20192;-72
2021/10/21 09:24:40;;;;;;;1.75;1.38;;;;;;;12.48;86.36;97989.81;6145352;29;20362;-72
2021/10/21 09:27:45;;;;;;;2.42;1.27;;;;;;;12.55;86.21;97982.06;6146358;29;20200;-73
2021/10/21 09:30:56;;;;;;;5.72;1.58;;;;;;;12.64;85.90;97978.63;6145670;29;20243;-73
2021/10/21 09:34:00;;;;;;;3.72;1.40;;;;;;;12.71;86.08;97979.06;6146356;29;20188;-72
2021/10/21 09:37:07;;;;;;;4.88;1.35;;;;;;;12.66;86.34;97970.97;6145857;29;20215;-72
2021/10/21 09:40:13;;;;;;;5.47;1.40;;;;;;;12.69;86.17;97959.38;6144874;29;20224;-72
2021/10/21 09:43:28;;;;;;;3.75;3.55;;;;;;;12.69;85.24;97954.75;6145584;29;20263;-72
2021/10/21 09:46:38;;;;;;;4.50;1.42;;;;;;;12.56;86.54;97945.38;6145598;29;20240;-72
2021/10/21 09:49:44;;;;;;;6.45;1.67;;;;;;;12.54;87.09;97936.69;6145020;29;20453;-72
2021/10/21 09:53:18;;;;;;;3.45;1.25;;;;;;;12.72;86.64;97934.19;6144588;29;20188;-72
2021/10/21 09:56:22;;;;;;;1.75;1.30;;;;;;;12.76;86.15;97929.75;6144510;29;20383;-72
2021/10/21 09:59:27;;;;;;;1.30;1.20;;;;;;;12.83;86.54;97916.47;6146507;29;20275;-72
2021/10/21 10:02:33;;;;;;;1.38;1.30;;;;;;;12.74;87.06;97907.34;6144646;29;20228;-73
2021/10/21 10:05:39;;;;;;;1.02;1.02;;;;;;;12.80;86.98;97896.00;6145670;29;20259;-72
2021/10/21 10:08:46;;;;;;;1.60;1.60;;;;;;;12.99;86.04;97895.94;6144138;29;20244;-73
2021/10/21 10:11:50;;;;;;;5.97;1.65;;;;;;;13.03;85.83;97888.72;6145398;29;20195;-73
2021/10/21 10:14:54;;;;;;;3.85;1.77;;;;;;;13.01;86.48;97885.50;6145102;29;20220;-73
2021/10/21 10:17:59;;;;;;;1.88;1.45;;;;;;;12.93;87.49;97875.25;6145266;29;20232;-72
2021/10/21 10:21:07;;;;;;;1.67;1.52;;;;;;;12.91;87.84;97864.63;6128105;29;20200;-72
2021/10/21 10:24:15;;;;;;;2.88;1.77;;;;;;;12.82;88.64;97862.88;6145013;29;20188;-73
2021/10/21 10:27:27;;;;;;;5.22;2.08;;;;;;;12.84;88.36;97850.50;6144564;29;20192;-73
2021/10/21 10:30:46;;;;;;;1.80;1.70;;;;;;;12.85;88.08;97843.13;6143610;29;20188;-73
2021/10/21 10:33:50;;;;;;;4.90;2.10;;;;;;;12.66;90.75;97817.81;6145170;29;20228;-73
2021/10/21 10:36:54;;;;;;;3.33;1.95;;;;;;;12.67;92.55;97813.94;6143607;29;20279;-74
2021/10/21 10:40:02;;;;;;;1.77;1.60;;;;;;;12.58;94.56;97795.50;6145118;29;20251;-74
2021/10/21 10:43:10;;;;;;;2.47;2.08;;;;;;;12.65;95.81;97778.69;6144582;29;20188;-73
2021/10/21 10:46:51;;;;;;;4.05;1.85;;;;;;;12.56;96.69;97786.78;6144517;29;20200;-73
2021/10/21 10:49:55;;;;;;;2.83;2.38;;;;;;;12.61;98.15;97765.94;6144255;29;20274;-73
2021/10/21 10:53:03;;;;;;;3.63;1.60;;;;;;;12.64;98.55;97748.91;6143253;29;20442;-73
2021/10/21 10:56:09;;;;;;;3.95;2.10;;;;;;;12.50;100.00;97744.28;6143839;29;20188;-73
2021/10/21 10:59:32;;;;;;;2.50;1.50;;;;;;;12.47;100.00;97733.94;6144224;29;20286;-73
2021/10/21 11:02:38;;;;;;;3.25;1.67;;;;;;;12.32;100.00;97742.44;6143295;29;20382;-74
2021/10/21 11:05:53;;;;;;;3.70;1.85;;;;;;;12.43;100.00;97727.44;6143858;29;20188;-73
2021/10/21 11:09:03;;;;;;;2.72;1.75;;;;;;;12.51;100.00;97712.25;6144345;29;20193;-74
2021/10/21 11:12:19;;;;;;;3.10;1.65;;;;;;;12.47;100.00;97690.19;6144221;29;20195;-74
2021/10/21 11:15:37;;;;;;;5.75;2.00;;;;;;;12.45;100.00;97681.47;6143045;29;20374;-73
2021/10/21 11:18:50;;;;;;;2.03;1.92;;;;;;;12.26;100.00;97671.75;6144070;29;20291;-74
2021/10/21 11:21:56;;;;;;;2.00;1.90;;;;;;;12.26;100.00;97658.91;6143607;29;20188;-73
2021/10/21 11:25:02;;;;;;;3.85;1.95;;;;;;;12.24;100.00;97642.03;6143923;29;20255;-74
2021/10/21 11:28:10;;;;;;;4.13;2.10;;;;;;;12.25;100.00;97632.69;6142835;29;20388;-74
2021/10/21 11:31:15;;;;;;;2.55;2.08;;;;;;;12.30;100.00;97618.13;6143853;29;20264;-74
2021/10/21 11:34:24;;;;;;;2.50;2.17;;;;;;;12.35;100.00;97605.13;6143416;29;20188;-73
2021/10/21 11:37:36;;;;;;;5.47;2.20;;;;;;;12.42;100.00;97599.28;6143348;29;20244;-74
2021/10/21 11:40:43;;;;;;;2.75;2.25;;;;;;;12.43;100.00;97601.69;6142857;29;20263;-74
2021/10/21 11:43:48;;;;;;;4.13;2.00;;;;;;;12.53;100.00;97585.06;6142324;29;20196;-74
2021/10/21 11:46:57;;;;;;;4.13;1.85;;;;;;;12.68;100.00;97578.44;6142687;29;20251;-73
2021/10/21 11:50:02;;;;;;;7.68;1.80;;;;;;;12.75;98.80;97572.53;6142896;29;20304;-73
2021/10/21 11:53:08;;;;;;;8.77;2.10;;;;;;;12.73;100.00;97566.59;6143273;29;20188;-73
2021/10/21 11:56:19;;;;;;;1.95;1.85;;;;;;;12.80;99.36;97565.03;6141906;29;20376;-71
2021/10/21 11:59:34;;;;;;;4.68;1.58;;;;;;;12.53;100.00;97557.72;6141908;29;20444;-73
2021/10/21 12:02:38;;;;;;;3.28;2.00;;;;;;;12.65;100.00;97548.16;6141686;29;20211;-74
2021/10/21 12:05:44;;;;;;;7.35;1.73;;;;;;;12.74;100.00;97551.78;6142582;29;20199;-72
2021/10/21 12:08:50;;;;;;;2.33;1.70;;;;;;;12.72;100.00;97543.88;6143082;29;20199;-72
2021/10/21 12:12:01;;;;;;;1.75;1.75;;;;;;;12.57;100.00;97545.06;6142651;29;20188;-73
2021/10/21 12:15:10;;;;;;;5.18;2.10;;;;;;;12.64;100.00;97535.59;6142849;29;20188;-73
2021/10/21 12:18:18;;;;;;;3.05;1.88;;;;;;;12.74;100.00;97518.94;6142696;29;20278;-72
2021/10/21 12:21:34;;;;;;;3.13;2.30;;;;;;;12.76;100.00;97516.72;6141421;29;20475;-73
2021/10/21 12:24:42;;;;;;;8.68;2.35;;;;;;;12.54;100.00;97504.66;6141239;29;20383;-72
2021/10/21 12:27:46;;;;;;;4.28;2.13;;;;;;;12.62;100.00;97494.91;6142467;29;20279;-72
2021/10/21 12:30:51;;;;;;;8.25;2.28;;;;;;;12.63;100.00;97479.31;6141521;29;20197;-72
2021/10/21 12:34:00;;;;;;;5.10;2.30;;;;;;;12.60;100.00;97475.28;6142055;29;20219;-73
2021/10/21 12:37:08;;;;;;;7.20;2.30;;;;;;;12.67;100.00;97455.69;6140978;29;20214;-72
2021/10/21 12:40:14;;;;;;;5.18;2.20;;;;;;;12.58;100.00;97440.03;6140767;29;20299;-73
2021/10/21 12:43:23;;;;;;;8.07;2.83;;;;;;;12.62;100.00;97444.88;6141842;29;20251;-72
2021/10/21 12:46:29;;;;;;;9.57;2.67;;;;;;;12.48;100.00;97429.34;6142257;29;20211;-73
2021/10/21 12:49:34;;;;;;;8.13;2.42;;;;;;;12.46;100.00;97426.13;6140846;29;20244;-73
2021/10/21 12:52:40;;;;;;;3.65;2.15;;;;;;;12.51;100.00;97412.31;6140037;29;20478;-73
2021/10/21 12:55:44;;;;;;;2.67;2.30;;;;;;;12.36;100.00;97406.44;6124941;29;20256;-73
2021/10/21 12:58:48;;;;;;;2.60;2.40;;;;;;;12.37;100.00;97408.06;6142071;29;20284;-73
2021/10/21 13:01:56;;;;;;;6.13;2.78;;;;;;;12.32;100.00;97392.59;6140598;29;20276;-73
2021/10/21 13:05:01;;;;;;;3.58;2.50;;;;;;;12.27;100.00;97378.25;6141682;29;20267;-73
2021/10/21 13:08:07;;;;;;;5.07;2.45;;;;;;;12.28;100.00;97383.38;6140625;29;20483;-73
2021/10/21 13:11:12;;;;;;;5.00;2.50;;;;;;;12.37;100.00;97367.88;6140472;29;20272;-73
2021/10/21 13:14:16;;;;;;;2.50;2.30;;;;;;;12.29;100.00;97359.59;6141884;29;20221;-73
2021/10/21 13:17:22;;;;;;;3.22;2.30;;;;;;;12.25;100.00;97358.63;6141744;29;20193;-73
2021/10/21 13:20:27;;;;;;;2.45;2.05;;;;;;;12.28;100.00;97350.59;6141716;29;20216;-73
2021/10/21 13:23:32;;;;;;;4.13;2.33;;;;;;;12.35;100.00;97336.50;6140344;29;20479;-73
2021/10/21 13:26:36;;;;;;;6.40;2.67;;;;;;;12.32;100.00;97327.00;6141694;29;20188;-72
2021/10/21 13:29:40;;;;;;;4.28;2.22;;;;;;;12.30;100.00;97310.09;6141279;29;20192;-73
2021/10/21 13:32:47;;;;;;;2.33;2.17;;;;;;;12.30;100.00;97301.88;6141171;29;20188;-73
2021/10/21 13:35:52;;;;;;;5.57;2.47;;;;;;;12.42;100.00;97291.19;6141655;29;20259;-73
2021/10/21 13:38:56;;;;;;;5.63;2.30;;;;;;;12.38;100.00;97276.53;6140244;29;20249;-72
2021/10/21 13:42:01;;;;;;;4.32;2.30;;;;;;;12.36;100.00;97267.84;6141188;29;20251;-72
2021/10/21 13:45:06;;;;;;;2.83;2.25;;;;;;;12.48;100.00;97259.03;6141620;29;20195;-73
2021/10/21 13:48:13;;;;;;;3.47;2.17;;;;;;;12.32;100.00;97253.22;6141081;29;20216;-73
2021/10/21 13:51:18;;;;;;;2.13;2.03;;;;;;;12.37;100.00;97246.78;6141497;29;20247;-73
2021/10/21 13:54:25;;;;;;;5.10;2.85;;;;;;;12.31;100.00;97245.31;6140393;29;20189;-73
2021/10/21 13:57:30;;;;;;;6.43;2.70;;;;;;;12.21;100.00;97231.91;6141031;29;20188;-73
2021/10/21 14:00:36;;;;;;;4.07;2.83;;;;;;;12.10;100.00;97236.84;6140430;29;20216;-73
2021/10/21 14:03:41;;;;;;;4.95;2.60;;;;;;;12.20;100.00;97225.66;6141180;29;20220;-73
2021/10/21 14:06:46;;;;;;;3.80;2.67;;;;;;;12.21;100.00;97234.66;6144937;29;20223;-73
2021/10/21 14:09:51;;;;;;;3.53;2.42;;;;;;;12.21;100.00;97238.19;6146331;29;20277;-72
2021/10/21 14:12:55;;;;;;;2.13;2.03;;;;;;;12.28;100.00;97216.69;6145082;29;20264;-73
2021/10/21 14:15:59;;;;;;;2.20;2.00;;;;;;;12.31;100.00;97221.53;6145439;29;20251;-73
2021/10/21 14:19:05;;;;;;;1.77;1.60;;;;;;;12.42;100.00;97225.59;6143929;29;20216;-72
2021/10/21 14:22:11;;;;;;;3.95;1.88;;;;;;;12.34;100.00;97226.38;6145218;29;20200;-73
2021/10/21 14:25:16;;;;;;;1.83;1.75;;;;;;;12.33;100.00;97235.69;6145215;29;20188;-73
2021/10/21 14:28:21;;;;;;;2.85;2.22;;;;;;;12.29;100.00;97234.69;6143844;29;20220;-73
2021/10/21 14:31:26;;;;;;;3.90;2.40;;;;;;;12.20;100.00;97233.84;6143699;29;20479;-74
2021/10/21 14:34:31;;;;;;;2.05;1.90;;;;;;;12.03;100.00;97239.22;6144689;29;20219;-73